createdAt,value
2023-03-19T00:00:41.456Z,5.54
2023-03-19T00:03:29.247Z,5.51
2023-03-19T00:05:57.220Z,5.47
2023-03-19T00:08:26.069Z,5.44
2023-03-19T00:10:53.826Z,5.40
2023-03-19T00:13:22.147Z,5.37
2023-03-19T00:15:50.186Z,5.33
2023-03-19T00:18:18.018Z,5.30
2023-03-19T00:20:46.333Z,5.26
2023-03-19T00:23:14.395Z,5.22
2023-03-19T00:25:42.274Z,5.18
2023-03-19T00:28:10.232Z,5.14
2023-03-19T00:30:38.076Z,5.10
2023-03-19T00:33:07.065Z,5.06
2023-03-19T00:35:35.292Z,5.02
2023-03-19T00:38:03.775Z,5.00
2023-03-19T00:40:33.556Z,4.96
2023-03-19T00:43:01.751Z,4.95
2023-03-19T00:45:30.965Z,4.92
2023-03-19T00:47:59.202Z,4.90
2023-03-19T00:50:27.237Z,4.89
2023-03-19T00:52:55.444Z,4.88
2023-03-19T00:55:25.657Z,4.88
2023-03-19T00:57:53.480Z,4.86
2023-03-19T01:00:21.663Z,4.86
2023-03-19T01:02:49.451Z,4.86
2023-03-19T01:05:17.949Z,4.86
2023-03-19T01:07:46.221Z,4.85
2023-03-19T01:10:14.087Z,4.84
2023-03-19T01:12:41.930Z,4.84
2023-03-19T01:15:10.963Z,4.83
2023-03-19T01:17:39.018Z,4.81
2023-03-19T01:20:13.087Z,4.80
2023-03-19T01:22:43.807Z,4.79
2023-03-19T01:25:13.979Z,4.77
2023-03-19T01:27:48.077Z,4.74
2023-03-19T01:30:16.217Z,4.73
2023-03-19T01:33:08.270Z,4.71
2023-03-19T01:35:58.209Z,4.69
2023-03-19T01:38:30.964Z,4.67
2023-03-19T01:41:03.177Z,4.64
2023-03-19T01:43:32.879Z,4.62
2023-03-19T01:46:17.938Z,4.60
2023-03-19T01:49:14.929Z,4.56
2023-03-19T01:51:48.096Z,4.52
2023-03-19T01:54:31.527Z,4.49
2023-03-19T01:57:21.157Z,4.44
2023-03-19T02:00:04.375Z,4.40
2023-03-19T02:02:56.747Z,4.36
2023-03-19T02:05:50.904Z,4.32
2023-03-19T02:08:23.842Z,4.30
2023-03-19T02:10:56.062Z,4.30
2023-03-19T02:13:24.002Z,4.72
2023-03-19T02:15:52.250Z,5.35
2023-03-19T02:18:22.044Z,5.87
2023-03-19T02:21:02.672Z,6.27
2023-03-19T02:23:38.586Z,6.62
2023-03-19T02:26:25.131Z,6.82
2023-03-19T02:29:00.281Z,6.44
2023-03-19T02:31:32.098Z,6.02
2023-03-19T02:34:03.678Z,5.73
2023-03-19T02:36:43.052Z,5.50
2023-03-19T02:39:22.252Z,5.32
2023-03-19T02:41:53.462Z,5.17
2023-03-19T02:44:22.014Z,5.06
2023-03-19T02:46:50.961Z,4.96
2023-03-19T02:49:19.123Z,4.86
2023-03-19T02:51:47.314Z,4.78
2023-03-19T02:54:15.389Z,4.70
2023-03-19T02:56:43.189Z,4.63
2023-03-19T02:59:11.123Z,4.56
2023-03-19T03:01:39.123Z,4.49
2023-03-19T03:04:07.375Z,4.43
2023-03-19T03:06:35.337Z,4.38
2023-03-19T03:09:03.976Z,4.32
2023-03-19T03:11:31.817Z,4.26
2023-03-19T03:13:59.605Z,4.21
2023-03-19T03:16:28.169Z,4.16
2023-03-19T03:18:56.465Z,4.10
2023-03-19T03:21:24.382Z,4.06
2023-03-19T03:23:52.527Z,4.02
2023-03-19T03:26:21.379Z,3.98
2023-03-19T03:28:49.210Z,3.95
2023-03-19T03:31:17.088Z,3.92
2023-03-19T03:33:45.985Z,3.90
2023-03-19T03:36:14.344Z,3.88
2023-03-19T03:38:42.637Z,3.85
2023-03-19T03:41:10.797Z,3.84
2023-03-19T03:43:39.742Z,3.82
2023-03-19T03:46:08.810Z,3.81
2023-03-19T03:48:37.052Z,3.79
2023-03-19T03:51:05.058Z,3.79
2023-03-19T03:53:33.400Z,4.18
2023-03-19T03:56:02.603Z,4.82
2023-03-19T03:58:30.792Z,5.33
2023-03-19T04:00:58.945Z,5.74
2023-03-19T04:03:27.413Z,6.05
2023-03-19T04:05:56.013Z,6.33
2023-03-19T04:08:24.801Z,6.46
2023-03-19T04:10:52.786Z,6.12
2023-03-19T04:13:21.021Z,5.67
2023-03-19T04:15:49.135Z,5.34
2023-03-19T04:18:17.595Z,5.08
2023-03-19T04:20:45.422Z,4.88
2023-03-19T04:23:13.248Z,4.72
2023-03-19T04:25:44.065Z,4.56
2023-03-19T04:28:11.868Z,4.43
2023-03-19T04:30:39.959Z,4.31
2023-03-19T04:33:08.175Z,4.21
2023-03-19T04:35:36.518Z,4.14
2023-03-19T04:38:04.553Z,4.06
2023-03-19T04:40:33.443Z,3.98
2023-03-19T04:43:02.820Z,3.91
2023-03-19T04:45:34.876Z,3.83
2023-03-19T04:48:03.905Z,3.76
2023-03-19T04:50:32.388Z,3.68
2023-03-19T04:53:01.756Z,3.62
2023-03-19T04:55:30.140Z,3.57
2023-03-19T04:58:09.286Z,3.51
2023-03-19T05:00:37.509Z,3.47
2023-03-19T05:03:06.563Z,3.43
2023-03-19T05:05:35.116Z,3.39
2023-03-19T05:08:07.485Z,3.40
2023-03-19T05:10:37.536Z,3.85
2023-03-19T05:13:07.089Z,4.44
2023-03-19T05:15:35.376Z,4.89
2023-03-19T05:18:07.063Z,5.24
2023-03-19T05:20:39.821Z,5.52
2023-03-19T05:23:11.875Z,5.77
2023-03-19T05:25:46.471Z,5.91
2023-03-19T05:28:17.247Z,5.56
2023-03-19T05:30:45.562Z,5.14
2023-03-19T05:33:26.997Z,4.81
2023-03-19T05:35:57.725Z,4.59
2023-03-19T05:38:40.848Z,4.41
2023-03-19T05:41:11.802Z,4.28
2023-03-19T05:44:03.390Z,4.16
2023-03-19T05:46:49.674Z,4.07
2023-03-19T05:49:18.459Z,4.02
2023-03-19T05:51:46.690Z,3.99
2023-03-19T05:54:14.612Z,3.96
2023-03-19T05:57:06.165Z,3.93
2023-03-19T05:59:53.044Z,3.92
2023-03-19T06:02:43.247Z,3.94
2023-03-19T06:05:24.722Z,3.98
2023-03-19T06:07:54.675Z,4.01
2023-03-19T06:10:28.370Z,4.04
2023-03-19T06:12:57.622Z,4.07
2023-03-19T06:15:39.303Z,4.10
2023-03-19T06:18:36.713Z,4.14
2023-03-19T06:21:09.167Z,4.16
2023-03-19T06:23:36.970Z,4.18
2023-03-19T06:26:06.222Z,4.20
2023-03-19T06:28:39.032Z,4.21
2023-03-19T06:31:07.286Z,4.28
2023-03-19T06:34:08.134Z,4.95
2023-03-19T06:36:41.064Z,5.59
2023-03-19T06:39:10.976Z,6.10
2023-03-19T06:41:39.117Z,6.52
2023-03-19T06:44:13.923Z,6.89
2023-03-19T06:46:42.361Z,7.21
2023-03-19T06:49:10.505Z,7.44
2023-03-19T06:51:38.489Z,7.22
2023-03-19T06:54:06.248Z,6.93
2023-03-19T06:56:33.996Z,6.77
2023-03-19T06:59:01.789Z,6.69
2023-03-19T07:01:29.647Z,6.69
2023-03-19T07:03:57.586Z,6.73
2023-03-19T07:06:25.566Z,6.79
2023-03-19T07:08:53.368Z,6.86
2023-03-19T07:11:21.198Z,6.91
2023-03-19T07:13:49.040Z,6.96
2023-03-19T07:16:16.901Z,6.99
2023-03-19T07:18:44.791Z,7.00
2023-03-19T07:21:12.828Z,7.01
2023-03-19T07:23:41.682Z,7.00
2023-03-19T07:26:10.011Z,7.00
2023-03-19T07:28:38.141Z,6.99
2023-03-19T07:31:06.690Z,7.00
2023-03-19T07:33:34.814Z,7.03
2023-03-19T07:36:03.251Z,7.06
2023-03-19T07:38:31.382Z,7.10
2023-03-19T07:41:02.704Z,7.14
2023-03-19T07:43:31.463Z,7.20
2023-03-19T07:46:00.182Z,7.25
2023-03-19T07:48:28.198Z,7.31
2023-03-19T07:50:56.361Z,7.37
2023-03-19T07:53:24.289Z,7.44
2023-03-19T07:55:52.217Z,7.52
2023-03-19T07:58:20.380Z,7.61
2023-03-19T08:00:48.596Z,7.69
2023-03-19T08:03:16.729Z,7.79
2023-03-19T08:05:44.795Z,7.90
2023-03-19T08:08:12.872Z,8.00
2023-03-19T08:10:41.101Z,8.11
2023-03-19T08:13:09.428Z,8.22
2023-03-19T08:15:37.203Z,8.33
2023-03-19T08:18:05.487Z,8.46
2023-03-19T08:20:33.950Z,8.60
2023-03-19T08:23:02.577Z,8.76
2023-03-19T08:25:32.785Z,8.93
2023-03-19T08:28:01.279Z,9.09
2023-03-19T08:30:29.600Z,9.27
2023-03-19T08:32:58.051Z,9.45
2023-03-19T08:35:28.994Z,9.65
2023-03-19T08:37:57.342Z,9.86
2023-03-19T08:40:25.470Z,10.09
2023-03-19T08:42:56.128Z,10.33
2023-03-19T08:45:24.376Z,10.62
2023-03-19T08:47:52.241Z,10.89
2023-03-19T08:50:20.553Z,11.17
2023-03-19T08:52:48.310Z,11.42
2023-03-19T08:55:17.311Z,11.64
2023-03-19T08:57:45.366Z,11.81
2023-03-19T09:00:14.139Z,11.98
2023-03-19T09:02:41.962Z,12.12
2023-03-19T09:05:10.173Z,12.24
2023-03-19T09:07:38.009Z,12.35
2023-03-19T09:10:06.842Z,12.45
2023-03-19T09:12:34.709Z,12.52
2023-03-19T09:15:03.719Z,12.61
2023-03-19T09:17:31.483Z,12.70
2023-03-19T09:19:59.572Z,12.81
2023-03-19T09:22:27.505Z,12.94
2023-03-19T09:24:55.469Z,13.07
2023-03-19T09:27:23.661Z,13.18
2023-03-19T09:29:51.733Z,13.26
2023-03-19T09:32:19.704Z,13.34
2023-03-19T09:34:47.851Z,13.41
2023-03-19T09:37:15.617Z,13.48
2023-03-19T09:39:43.710Z,13.57
2023-03-19T09:42:29.507Z,13.66
2023-03-19T09:44:57.949Z,13.75
2023-03-19T09:47:30.906Z,13.86
2023-03-19T09:50:02.327Z,13.99
2023-03-19T09:52:51.332Z,14.14
2023-03-19T09:55:28.329Z,14.33
2023-03-19T09:57:58.907Z,14.50
2023-03-19T10:00:30.397Z,14.65
2023-03-19T10:03:14.452Z,14.78
2023-03-19T10:05:53.055Z,14.87
2023-03-19T10:08:47.975Z,14.91
2023-03-19T10:11:21.779Z,14.91
2023-03-19T10:14:02.282Z,14.89
2023-03-19T10:16:31.069Z,14.85
2023-03-19T10:19:03.276Z,14.83
2023-03-19T10:22:07.410Z,14.84
2023-03-19T10:24:40.508Z,14.89
2023-03-19T10:27:20.946Z,14.92
2023-03-19T10:29:48.914Z,14.93
2023-03-19T10:32:46.502Z,14.96
2023-03-19T10:35:24.724Z,14.96
2023-03-19T10:37:55.355Z,14.94
2023-03-19T10:40:40.378Z,14.95
2023-03-19T10:43:27.805Z,14.94
2023-03-19T10:45:58.399Z,14.93
2023-03-19T10:48:28.345Z,14.93
2023-03-19T10:51:01.540Z,14.95
2023-03-19T10:53:38.956Z,14.95
2023-03-19T10:56:29.660Z,14.93
2023-03-19T10:59:01.162Z,14.89
2023-03-19T11:01:35.266Z,14.84
2023-03-19T11:04:12.974Z,14.83
2023-03-19T11:06:41.706Z,14.86
2023-03-19T11:09:09.499Z,14.93
2023-03-19T11:11:43.180Z,15.02
2023-03-19T11:14:36.296Z,15.12
2023-03-19T11:17:06.689Z,15.24
2023-03-19T11:19:42.125Z,15.31
2023-03-19T11:22:18.963Z,15.37
2023-03-19T11:25:02.511Z,15.38
2023-03-19T11:27:35.042Z,15.36
2023-03-19T11:30:15.032Z,15.35
2023-03-19T11:33:00.023Z,15.37
2023-03-19T11:35:40.694Z,15.41
2023-03-19T11:38:23.483Z,15.47
2023-03-19T11:41:27.515Z,15.54
2023-03-19T11:44:16.998Z,15.66
2023-03-19T11:47:00.717Z,15.82
2023-03-19T11:49:40.951Z,16.01
2023-03-19T11:52:18.152Z,16.17
2023-03-19T11:55:17.279Z,16.30
2023-03-19T11:58:22.904Z,16.42
2023-03-19T12:00:57.019Z,16.59
2023-03-19T12:03:49.112Z,16.71
2023-03-19T12:06:27.973Z,16.78
2023-03-19T12:09:03.834Z,16.81
2023-03-19T12:11:34.603Z,16.79
2023-03-19T12:14:10.341Z,16.73
2023-03-19T12:16:56.057Z,16.69
2023-03-19T12:19:39.708Z,16.66
2023-03-19T12:22:16.770Z,16.65
2023-03-19T12:25:06.890Z,16.64
2023-03-19T12:27:53.818Z,16.66
2023-03-19T12:30:27.522Z,16.68
2023-03-19T12:33:14.338Z,16.67
2023-03-19T12:35:46.317Z,16.67
2023-03-19T12:38:28.169Z,16.64
2023-03-19T12:41:04.192Z,16.62
2023-03-19T12:43:45.393Z,16.64
2023-03-19T12:46:18.720Z,16.65
2023-03-19T12:48:49.667Z,16.63
2023-03-19T12:51:23.254Z,16.63
2023-03-19T12:54:06.862Z,16.65
2023-03-19T12:56:42.593Z,16.70
2023-03-19T12:59:35.591Z,16.73
2023-03-19T13:02:09.852Z,16.82
2023-03-19T13:04:51.609Z,16.93
2023-03-19T13:07:28.639Z,17.04
2023-03-19T13:10:06.803Z,17.13
2023-03-19T13:12:38.274Z,17.21
2023-03-19T13:15:14.455Z,17.27
2023-03-19T13:17:54.865Z,17.34
2023-03-19T13:20:37.582Z,17.41
2023-03-19T13:23:07.806Z,17.47
2023-03-19T13:25:41.640Z,17.48
2023-03-19T13:28:26.470Z,17.52
2023-03-19T13:31:06.161Z,17.54
2023-03-19T13:33:40.242Z,17.52
2023-03-19T13:36:15.233Z,17.46
2023-03-19T13:38:51.327Z,17.40
2023-03-19T13:41:39.803Z,17.33
2023-03-19T13:44:22.712Z,17.25
2023-03-19T13:46:51.448Z,17.19
2023-03-19T13:49:19.389Z,17.14
2023-03-19T13:51:51.307Z,17.08
2023-03-19T13:54:23.277Z,17.02
2023-03-19T13:57:05.036Z,16.98
2023-03-19T13:59:38.483Z,16.95
2023-03-19T14:02:21.582Z,16.93
2023-03-19T14:05:04.190Z,16.89
2023-03-19T14:07:38.225Z,16.87
2023-03-19T14:10:25.461Z,16.86
2023-03-19T14:13:05.687Z,16.85
2023-03-19T14:15:50.441Z,16.86
2023-03-19T14:18:21.837Z,16.89
2023-03-19T14:21:07.115Z,16.90
2023-03-19T14:23:44.129Z,16.93
2023-03-19T14:26:19.608Z,16.96
2023-03-19T14:29:06.099Z,16.98
2023-03-19T14:31:46.025Z,16.98
2023-03-19T14:34:22.404Z,16.97
2023-03-19T14:37:23.448Z,16.94
2023-03-19T14:40:02.665Z,16.89
2023-03-19T14:42:38.502Z,16.85
2023-03-19T14:45:15.450Z,16.78
2023-03-19T14:48:15.275Z,16.70
2023-03-19T14:51:01.631Z,16.62
2023-03-19T14:53:38.525Z,16.54
2023-03-19T14:56:36.622Z,16.49
2023-03-19T14:59:06.528Z,16.42
2023-03-19T15:01:41.352Z,16.37
2023-03-19T15:04:13.085Z,16.34
2023-03-19T15:06:43.470Z,16.32
2023-03-19T15:09:31.569Z,16.30
2023-03-19T15:12:08.543Z,16.26
2023-03-19T15:14:51.512Z,16.20
2023-03-19T15:17:28.926Z,16.09
2023-03-19T15:20:00.735Z,15.98
2023-03-19T15:22:34.721Z,15.88
2023-03-19T15:25:14.659Z,15.77
2023-03-19T15:27:42.967Z,15.67
2023-03-19T15:30:24.787Z,15.58
2023-03-19T15:33:07.947Z,15.49
2023-03-19T15:35:39.041Z,15.41
2023-03-19T15:38:10.466Z,15.35
2023-03-19T15:40:41.652Z,15.29
2023-03-19T15:43:13.077Z,15.24
2023-03-19T15:45:46.308Z,15.19
2023-03-19T15:48:35.740Z,15.13
2023-03-19T15:51:06.750Z,15.07
2023-03-19T15:53:36.641Z,15.01
2023-03-19T15:56:05.491Z,14.95
2023-03-19T15:58:40.122Z,14.89
2023-03-19T16:01:10.210Z,14.82
2023-03-19T16:03:45.832Z,14.75
2023-03-19T16:06:30.826Z,14.68
2023-03-19T16:09:14.115Z,14.62
2023-03-19T16:11:44.010Z,14.55
2023-03-19T16:14:17.347Z,14.47
2023-03-19T16:16:47.265Z,14.41
2023-03-19T16:19:28.846Z,14.34
2023-03-19T16:21:57.566Z,14.27
2023-03-19T16:24:31.056Z,14.19
2023-03-19T16:26:59.803Z,14.11
2023-03-19T16:29:58.244Z,14.01
2023-03-19T16:32:28.563Z,13.89
2023-03-19T16:35:07.060Z,13.79
2023-03-19T16:37:38.063Z,13.67
2023-03-19T16:40:29.078Z,13.56
2023-03-19T16:43:07.505Z,13.44
2023-03-19T16:45:35.688Z,13.32
2023-03-19T16:48:03.865Z,13.21
2023-03-19T16:50:38.179Z,13.08
2023-03-19T16:53:20.459Z,12.97
2023-03-19T16:55:48.797Z,12.85
2023-03-19T16:58:20.380Z,12.73
2023-03-19T17:00:48.251Z,12.63
2023-03-19T17:03:18.452Z,12.52
2023-03-19T17:05:48.319Z,12.43
2023-03-19T17:08:16.136Z,12.34
2023-03-19T17:10:49.009Z,12.25
2023-03-19T17:13:28.374Z,12.16
2023-03-19T17:16:03.187Z,12.07
2023-03-19T17:18:41.942Z,11.99
2023-03-19T17:21:18.317Z,11.91
2023-03-19T17:23:46.752Z,11.84
2023-03-19T17:26:21.828Z,11.78
2023-03-19T17:28:50.372Z,11.71
2023-03-19T17:31:31.059Z,11.65
2023-03-19T17:34:03.607Z,11.58
2023-03-19T17:36:32.229Z,11.53
2023-03-19T17:39:00.286Z,11.47
2023-03-19T17:41:30.516Z,11.42
2023-03-19T17:43:59.190Z,11.38
2023-03-19T17:46:27.570Z,11.33
2023-03-19T17:48:56.266Z,11.28
2023-03-19T17:51:25.160Z,11.23
2023-03-19T17:53:55.168Z,11.19
2023-03-19T17:56:28.055Z,11.14
2023-03-19T17:58:56.547Z,11.09
2023-03-19T18:01:28.338Z,11.04
2023-03-19T18:03:58.115Z,10.98
2023-03-19T18:06:32.067Z,10.93
2023-03-19T18:09:00.022Z,10.88
2023-03-19T18:11:27.800Z,10.84
2023-03-19T18:13:55.638Z,10.79
2023-03-19T18:16:29.164Z,10.75
2023-03-19T18:19:03.494Z,10.70
2023-03-19T18:21:31.493Z,10.65
2023-03-19T18:23:59.448Z,10.60
2023-03-19T18:26:27.408Z,10.54
2023-03-19T18:28:55.354Z,10.50
2023-03-19T18:31:25.781Z,10.44
2023-03-19T18:33:56.713Z,10.40
2023-03-19T18:36:27.720Z,10.35
2023-03-19T18:38:57.024Z,10.31
2023-03-19T18:41:29.077Z,10.28
2023-03-19T18:44:08.006Z,10.24
2023-03-19T18:46:39.372Z,10.21
2023-03-19T18:49:20.980Z,10.18
2023-03-19T18:52:02.187Z,10.14
2023-03-19T18:54:32.526Z,10.11
2023-03-19T18:57:02.361Z,10.08
2023-03-19T18:59:33.146Z,10.05
2023-03-19T19:02:35.190Z,10.02
2023-03-19T19:05:03.873Z,9.99
2023-03-19T19:07:31.738Z,9.95
2023-03-19T19:09:59.672Z,9.93
2023-03-19T19:12:27.517Z,9.90
2023-03-19T19:14:58.704Z,9.88
2023-03-19T19:17:29.402Z,9.85
2023-03-19T19:19:57.484Z,9.83
2023-03-19T19:22:25.294Z,9.81
2023-03-19T19:24:53.077Z,9.79
2023-03-19T19:27:25.974Z,9.76
2023-03-19T19:29:53.998Z,9.73
2023-03-19T19:32:26.385Z,9.70
2023-03-19T19:34:54.728Z,9.68
2023-03-19T19:37:23.754Z,9.65
2023-03-19T19:39:52.121Z,9.61
2023-03-19T19:42:22.554Z,9.58
2023-03-19T19:44:59.069Z,9.55
2023-03-19T19:47:28.096Z,9.52
2023-03-19T19:49:56.619Z,9.48
2023-03-19T19:52:24.410Z,9.45
2023-03-19T19:54:52.248Z,9.42
2023-03-19T19:57:24.570Z,9.38
2023-03-19T19:59:54.540Z,9.35
2023-03-19T20:02:29.600Z,9.31
2023-03-19T20:04:58.778Z,9.27
2023-03-19T20:07:27.331Z,9.23
2023-03-19T20:09:55.256Z,9.18
2023-03-19T20:12:33.308Z,9.13
2023-03-19T20:15:02.029Z,9.09
2023-03-19T20:17:29.824Z,9.05
2023-03-19T20:19:57.738Z,9.01
2023-03-19T20:22:25.817Z,8.96
2023-03-19T20:24:53.596Z,8.92
2023-03-19T20:27:30.404Z,8.88
2023-03-19T20:29:58.365Z,8.81
2023-03-19T20:32:33.003Z,8.76
2023-03-19T20:35:01.981Z,8.69
2023-03-19T20:37:29.847Z,8.62
2023-03-19T20:39:57.808Z,8.55
2023-03-19T20:42:29.387Z,8.48
2023-03-19T20:44:58.972Z,8.43
2023-03-19T20:47:26.940Z,8.37
2023-03-19T20:49:54.775Z,8.30
2023-03-19T20:52:22.593Z,8.24
2023-03-19T20:54:50.327Z,8.19
2023-03-19T20:57:22.992Z,8.13
2023-03-19T20:59:50.840Z,8.09
2023-03-19T21:02:24.486Z,8.04
2023-03-19T21:04:53.333Z,7.98
2023-03-19T21:07:36.464Z,7.94
2023-03-19T21:19:52.270Z,7.73
2023-03-19T21:22:28.755Z,7.69
2023-03-19T21:25:04.365Z,7.65
2023-03-19T21:27:35.869Z,7.60
2023-03-19T21:30:05.885Z,7.56
2023-03-19T21:32:33.881Z,7.52
2023-03-19T21:35:02.392Z,7.49
2023-03-19T21:37:30.635Z,7.45
2023-03-19T21:39:58.484Z,7.41
2023-03-19T21:42:27.157Z,7.37
2023-03-19T21:44:59.722Z,7.34
2023-03-19T21:47:27.891Z,7.30
2023-03-19T21:49:56.542Z,7.28
2023-03-19T21:52:24.297Z,7.25
2023-03-19T21:54:52.485Z,7.21
2023-03-19T21:57:20.371Z,7.18
2023-03-19T21:59:48.671Z,7.14
2023-03-19T22:02:39.817Z,7.10
2023-03-19T22:05:25.581Z,7.06
2023-03-19T22:07:54.178Z,7.03
2023-03-19T22:10:26.981Z,6.98
2023-03-19T22:12:54.965Z,6.95
2023-03-19T22:15:35.379Z,6.91
2023-03-19T22:18:12.071Z,6.88
2023-03-19T22:20:41.341Z,6.85
2023-03-19T22:23:11.277Z,6.82
2023-03-19T22:25:42.700Z,6.79
2023-03-19T22:28:29.746Z,6.81
2023-03-19T22:30:58.584Z,7.32
2023-03-19T22:33:27.051Z,7.90
2023-03-19T22:35:54.945Z,8.34
2023-03-19T22:38:23.698Z,8.68
2023-03-19T22:40:53.866Z,8.97
2023-03-19T22:43:35.033Z,9.12
2023-03-19T22:46:09.476Z,8.75
2023-03-19T22:48:37.412Z,8.33
2023-03-19T22:51:06.642Z,8.03
2023-03-19T22:53:36.512Z,7.80
2023-03-19T22:56:04.874Z,7.63
2023-03-19T22:58:32.825Z,7.49
2023-03-19T23:01:01.130Z,7.36
2023-03-19T23:03:31.145Z,7.25
2023-03-19T23:06:10.524Z,7.14
2023-03-19T23:08:42.503Z,7.05
2023-03-19T23:11:10.353Z,6.96
2023-03-19T23:13:38.191Z,6.88
2023-03-19T23:16:21.192Z,6.80
2023-03-19T23:18:50.072Z,6.71
2023-03-19T23:21:19.970Z,6.63
2023-03-19T23:23:48.073Z,6.56
2023-03-19T23:26:34.520Z,6.49
2023-03-19T23:29:05.312Z,6.52
2023-03-19T23:31:34.540Z,7.01
2023-03-19T23:34:02.475Z,7.57
2023-03-19T23:36:30.940Z,8.00
2023-03-19T23:38:59.269Z,8.35
2023-03-19T23:41:30.062Z,8.61
2023-03-19T23:44:06.119Z,8.84
2023-03-19T23:46:35.548Z,8.94
2023-03-19T23:49:03.405Z,8.54
2023-03-19T23:51:31.455Z,8.09
2023-03-19T23:53:59.467Z,7.75
2023-03-19T23:56:28.322Z,7.49
